MDCY

Details ICAO MDCY (AZS)
Name Samana El Catey International
Region Dominican Republic
Timezone America/Santo_Domingo (UTC-4.0)
Plans Departing 19
Arriving 31
Stats Elevation 12 ft / 4 m (AMSL)
Location 19.264917° -69.732084°
Runways 1
Magnetic Variation 11.619° W
Sunrise 2018-05-21 10:03:36 UTC / 2018-05-21 06:03:36 Local
Sunset 2018-05-21 23:10:19 UTC / 2018-05-21 19:10:19 Local
Advertisement - Login to hide

Runways

ID Width Length Bearing (true) Bearing (mag) Surface Threshold Offset Overrun Length
07 148 ft / 45 m 9,126 ft / 2,782 m 55.49° 67.11° Asphalt 0 ft / 0 m 200 ft / 61 m
25 148 ft / 45 m 9,126 ft / 2,782 m 235.50° 247.12° Asphalt 0 ft / 0 m 200 ft / 61 m

Map

Weather


0- 5 10 15 20 25 30 35+ Temperature / ° C

Clouds and Precipitation
Forecast for 2018-05-21 18:00 UTC. Updated 2 hours ago

Ground ~20,000 ft ~40,000 ft Winds

METAR

MDCY 211900Z 06015KT 8000 -RA SCT018 25/23 Q1017

TAF

Not found

Frequencies

Ground 121.70 MHz Catey Ground
Tower 118.35 MHz Catey Tower
Warning: Do not use this data for real-world aviation or navigation. No guarantee of current accuracy is given.